Time;durP1;ratioP1;P1;durP2;ratioP2;P2;SDS_P1;SDS_P2;PMS_P1;PMS_P2;Temp;Humidity;BMP_temperature;BMP_pressure;BME280_temperature;BME280_humidity;BME280_pressure;Samples;Min_cycle;Max_cycle;Signal;HPM_P1;HPM_P2
2023/07/12 00:00:30;;;;;;;0.05;0.05;;;;;;;12.61;100.00;99803.19;5047959;28;20032;-75
2023/07/12 00:02:58;;;;;;;0.00;0.00;;;;;;;12.63;100.00;99817.44;5032454;28;20060;-73
2023/07/12 00:05:28;;;;;;;0.00;0.00;;;;;;;12.59;100.00;99821.88;5027269;28;20018;-74
2023/07/12 00:07:55;;;;;;;0.00;0.00;;;;;;;12.58;100.00;99815.56;5004969;28;20435;-76
2023/07/12 00:10:26;;;;;;;0.00;0.00;;;;;;;12.51;100.00;99819.78;5050294;28;20014;-76
2023/07/12 00:12:52;;;;;;;0.00;0.00;;;;;;;12.48;100.00;99820.38;5020484;28;20029;-75
2023/07/12 00:15:25;;;;;;;0.00;0.00;;;;;;;12.26;100.00;99786.09;5024679;28;20433;-77
2023/07/12 00:17:53;;;;;;;0.00;0.00;;;;;;;12.46;100.00;99817.13;5031840;28;20041;-75
2023/07/12 00:20:35;;;;;;;0.00;0.00;;;;;;;12.39;100.00;99799.06;5012102;28;20042;-76
2023/07/12 00:23:09;;;;;;;0.00;0.00;;;;;;;12.47;100.00;99802.28;5045392;28;20468;-77
2023/07/12 00:25:38;;;;;;;0.00;0.00;;;;;;;12.38;100.00;99800.19;5023016;28;20040;-76
2023/07/12 00:28:25;;;;;;;0.00;0.00;;;;;;;12.48;100.00;99825.84;5062639;28;20050;-77
2023/07/12 00:30:56;;;;;;;0.00;0.00;;;;;;;12.36;100.00;99821.59;5018619;28;20475;-77
2023/07/12 00:33:25;;;;;;;0.00;0.00;;;;;;;12.38;100.00;99826.78;5049765;28;20115;-77
2023/07/12 00:35:51;;;;;;;0.00;0.00;;;;;;;12.32;100.00;99828.75;5025129;28;20029;-77
2023/07/12 00:38:20;;;;;;;0.00;0.00;;;;;;;12.23;100.00;99823.09;5046805;28;20046;-77
2023/07/12 00:40:51;;;;;;;0.00;0.00;;;;;;;12.30;100.00;99831.00;5024864;28;20465;-75
2023/07/12 00:43:49;;;;;;;0.00;0.00;;;;;;;12.27;100.00;99826.09;5025339;28;20112;-76
2023/07/12 00:46:37;;;;;;;0.00;0.00;;;;;;;12.21;100.00;99816.31;5013521;28;20088;-77
2023/07/12 00:49:03;;;;;;;0.00;0.00;;;;;;;12.21;100.00;99822.59;5031145;28;20025;-77
2023/07/12 00:51:49;;;;;;;0.00;0.00;;;;;;;12.20;100.00;99825.63;5028269;28;20017;-75
2023/07/12 00:54:18;;;;;;;0.00;0.00;;;;;;;12.14;100.00;99818.59;5032602;28;20029;-75
2023/07/12 00:56:44;;;;;;;0.00;0.00;;;;;;;11.98;100.00;99804.22;5029591;28;20048;-76
2023/07/12 00:59:14;;;;;;;0.00;0.00;;;;;;;12.14;100.00;99821.31;5034668;28;20050;-76
2023/07/12 01:01:40;;;;;;;0.00;0.00;;;;;;;12.11;100.00;99809.00;5020861;28;20025;-76
2023/07/12 01:04:07;;;;;;;0.00;0.00;;;;;;;12.10;100.00;99810.09;5003645;28;20033;-77
2023/07/12 01:06:33;;;;;;;0.00;0.00;;;;;;;12.10;100.00;99812.03;5025089;28;20421;-76
2023/07/12 01:09:08;;;;;;;0.00;0.00;;;;;;;12.10;100.00;99821.06;5063246;28;20037;-76
2023/07/12 01:11:34;;;;;;;0.00;0.00;;;;;;;12.08;100.00;99814.28;5016772;28;20032;-75
2023/07/12 01:13:59;;;;;;;0.00;0.00;;;;;;;12.04;100.00;99819.50;5022361;28;20630;-76
2023/07/12 01:16:25;;;;;;;0.00;0.00;;;;;;;12.05;100.00;99832.91;4999017;28;20032;-78
2023/07/12 01:18:50;;;;;;;0.00;0.00;;;;;;;11.96;100.00;99820.13;5013879;28;20110;-74
2023/07/12 01:21:24;;;;;;;0.00;0.00;;;;;;;11.97;100.00;99822.59;5001057;28;20041;-77
2023/07/12 01:23:50;;;;;;;0.00;0.00;;;;;;;11.96;100.00;99820.97;5011294;28;20071;-76
2023/07/12 01:26:35;;;;;;;0.00;0.00;;;;;;;11.92;100.00;99825.34;5003663;28;20030;-75
2023/07/12 01:29:04;;;;;;;0.00;0.00;;;;;;;11.87;100.00;99814.44;5036105;28;20382;-75
2023/07/12 01:31:31;;;;;;;0.00;0.00;;;;;;;11.85;100.00;99802.97;5026765;28;20475;-74
2023/07/12 01:33:57;;;;;;;0.00;0.00;;;;;;;11.79;100.00;99809.59;5029329;28;20060;-75
2023/07/12 01:36:24;;;;;;;0.00;0.00;;;;;;;11.83;100.00;99816.13;5028121;28;20045;-77
2023/07/12 01:38:52;;;;;;;0.00;0.00;;;;;;;11.82;100.00;99817.22;5039820;28;20091;-76
2023/07/12 01:41:17;;;;;;;0.00;0.00;;;;;;;11.83;100.00;99811.47;5028597;28;20038;-76
2023/07/12 01:43:43;;;;;;;0.00;0.00;;;;;;;11.84;100.00;99801.31;5016621;28;20029;-77
2023/07/12 01:46:09;;;;;;;0.00;0.00;;;;;;;11.84;100.00;99801.31;5039187;28;20105;-76
2023/07/12 01:48:35;;;;;;;0.00;0.00;;;;;;;11.91;100.00;99818.22;5029070;28;20035;-76
2023/07/12 01:51:00;;;;;;;0.00;0.00;;;;;;;11.86;100.00;99815.56;5025881;28;20021;-76
2023/07/12 01:53:28;;;;;;;0.00;0.00;;;;;;;11.95;100.00;99824.78;5040886;28;20464;-75
2023/07/12 01:55:54;;;;;;;0.00;0.00;;;;;;;11.98;100.00;99828.88;5034539;28;20463;-75
2023/07/12 01:58:21;;;;;;;0.00;0.00;;;;;;;11.97;100.00;99830.81;5046739;28;20057;-75
2023/07/12 02:00:47;;;;;;;0.00;0.00;;;;;;;11.96;100.00;99825.59;5011571;28;20028;-76
2023/07/12 02:03:12;;;;;;;0.00;0.00;;;;;;;11.87;100.00;99812.53;5040347;28;20042;-75
2023/07/12 02:05:38;;;;;;;0.00;0.00;;;;;;;11.92;100.00;99819.88;5051092;28;20089;-75
2023/07/12 02:08:03;;;;;;;0.00;0.00;;;;;;;11.87;100.00;99822.66;5048428;28;20456;-76
2023/07/12 02:10:29;;;;;;;0.00;0.00;;;;;;;11.84;100.00;99820.50;5036310;28;20028;-75
2023/07/12 02:12:54;;;;;;;0.00;0.00;;;;;;;11.87;100.00;99833.59;5018537;28;20098;-75
2023/07/12 02:15:20;;;;;;;0.00;0.00;;;;;;;11.83;100.00;99829.84;5041491;28;20032;-74
2023/07/12 02:17:46;;;;;;;0.00;0.00;;;;;;;11.88;100.00;99843.47;5025891;28;20037;-74
2023/07/12 02:20:12;;;;;;;0.00;0.00;;;;;;;11.84;100.00;99845.97;5043184;28;20024;-74
2023/07/12 02:22:43;;;;;;;0.00;0.00;;;;;;;11.82;100.00;99848.19;5050665;28;20033;-74
2023/07/12 02:25:10;;;;;;;0.00;0.00;;;;;;;11.75;100.00;99834.00;5000390;28;20029;-75
2023/07/12 02:27:36;;;;;;;0.00;0.00;;;;;;;11.74;100.00;99846.06;5032002;28;20375;-74
2023/07/12 02:30:01;;;;;;;0.00;0.00;;;;;;;11.64;100.00;99829.75;5056587;28;20120;-75
2023/07/12 02:32:28;;;;;;;0.00;0.00;;;;;;;11.61;100.00;99836.59;5033541;28;20032;-76
2023/07/12 02:34:54;;;;;;;0.00;0.00;;;;;;;11.57;100.00;99835.53;5010876;28;20029;-75
2023/07/12 02:37:22;;;;;;;0.00;0.00;;;;;;;11.50;100.00;99841.31;5042108;28;20037;-76
2023/07/12 02:39:48;;;;;;;0.00;0.00;;;;;;;11.51;100.00;99847.66;5037302;28;20044;-77
2023/07/12 02:42:13;;;;;;;0.00;0.00;;;;;;;11.43;100.00;99842.78;5032585;28;20037;-75
2023/07/12 02:44:39;;;;;;;0.00;0.00;;;;;;;11.45;100.00;99857.00;5011264;28;20036;-78
2023/07/12 02:47:07;;;;;;;0.00;0.00;;;;;;;11.41;100.00;99858.66;5012236;28;20132;-78
2023/07/12 02:49:33;;;;;;;0.00;0.00;;;;;;;11.34;100.00;99854.31;4997668;28;20025;-79
2023/07/12 02:51:58;;;;;;;0.00;0.00;;;;;;;11.34;100.00;99857.06;4984987;28;20048;-77
2023/07/12 02:54:24;;;;;;;0.00;0.00;;;;;;;11.33;100.00;99852.69;5027159;28;20395;-77
2023/07/12 02:56:49;;;;;;;0.00;0.00;;;;;;;11.29;100.00;99851.63;5022521;28;20036;-77
2023/07/12 02:59:14;;;;;;;0.00;0.00;;;;;;;11.25;100.00;99838.81;5022916;28;20494;-77
2023/07/12 03:01:43;;;;;;;0.00;0.00;;;;;;;11.26;100.00;99838.53;5006271;28;20048;-75
2023/07/12 03:04:08;;;;;;;0.00;0.00;;;;;;;11.22;100.00;99840.19;5031486;28;20097;-75
2023/07/12 03:06:36;;;;;;;0.00;0.00;;;;;;;11.24;100.00;99843.44;5039579;28;20108;-79
2023/07/12 03:09:04;;;;;;;0.00;0.00;;;;;;;11.26;100.00;99846.72;4995569;28;20040;-77
2023/07/12 03:11:30;;;;;;;0.00;0.00;;;;;;;11.28;100.00;99847.25;5026566;28;20057;-78
2023/07/12 03:13:55;;;;;;;0.00;0.00;;;;;;;11.30;100.00;99846.97;5020409;28;20450;-76
2023/07/12 03:16:21;;;;;;;0.00;0.00;;;;;;;11.33;100.00;99851.88;5018125;28;20079;-78
2023/07/12 03:18:46;;;;;;;0.00;0.00;;;;;;;11.29;100.00;99843.41;4997723;28;20041;-78
2023/07/12 03:21:12;;;;;;;0.00;0.00;;;;;;;11.29;100.00;99851.63;5012453;28;20034;-78
2023/07/12 03:23:37;;;;;;;0.00;0.00;;;;;;;11.28;100.00;99849.19;5011343;28;20092;-79
2023/07/12 03:26:03;;;;;;;0.00;0.00;;;;;;;11.27;100.00;99845.63;5027242;28;20033;-76
2023/07/12 03:28:31;;;;;;;0.00;0.00;;;;;;;11.33;100.00;99846.38;5012298;28;20026;-77
2023/07/12 03:31:03;;;;;;;0.00;0.00;;;;;;;11.33;100.00;99844.50;5008098;28;20030;-77
2023/07/12 03:33:29;;;;;;;0.00;0.00;;;;;;;11.34;100.00;99846.09;5022817;28;20021;-77
2023/07/12 03:35:55;;;;;;;0.00;0.00;;;;;;;11.35;100.00;99836.78;5013956;28;20029;-78
2023/07/12 03:38:24;;;;;;;0.00;0.00;;;;;;;11.38;100.00;99845.56;5039857;28;20100;-77
2023/07/12 03:40:53;;;;;;;0.00;0.00;;;;;;;11.37;100.00;99854.88;5012069;28;20034;-74
2023/07/12 03:43:19;;;;;;;0.00;0.00;;;;;;;11.41;100.00;99854.00;5024937;28;20029;-74
2023/07/12 03:45:44;;;;;;;0.00;0.00;;;;;;;11.43;100.00;99849.06;5046068;28;20084;-75
2023/07/12 03:48:10;;;;;;;0.00;0.00;;;;;;;11.44;100.00;99858.91;5025346;28;20025;-74
2023/07/12 03:50:41;;;;;;;0.00;0.00;;;;;;;11.42;100.00;99855.66;5022767;28;20017;-74
2023/07/12 03:53:07;;;;;;;0.00;0.00;;;;;;;11.43;100.00;99856.47;5026367;28;20109;-74
2023/07/12 03:55:32;;;;;;;0.00;0.00;;;;;;;11.45;100.00;99854.25;5022913;28;20806;-77
2023/07/12 03:57:57;;;;;;;0.00;0.00;;;;;;;11.42;100.00;99860.28;5048033;28;20022;-77
2023/07/12 04:00:23;;;;;;;0.00;0.00;;;;;;;11.44;100.00;99864.38;4990698;28;20088;-77
2023/07/12 04:02:49;;;;;;;0.00;0.00;;;;;;;11.39;100.00;99866.34;5018503;28;20021;-77
2023/07/12 04:05:15;;;;;;;0.00;0.00;;;;;;;11.43;100.00;99872.88;5044664;28;20034;-78
2023/07/12 04:07:40;;;;;;;0.00;0.00;;;;;;;11.49;100.00;99879.94;5051558;28;20041;-76
2023/07/12 04:10:07;;;;;;;0.00;0.00;;;;;;;11.52;100.00;99882.13;5010697;28;20076;-77
2023/07/12 04:12:35;;;;;;;0.00;0.00;;;;;;;11.55;100.00;99883.47;5026695;28;20025;-77
2023/07/12 04:15:01;;;;;;;0.00;0.00;;;;;;;11.54;100.00;99879.91;5023437;28;20021;-76
2023/07/12 04:17:29;;;;;;;0.00;0.00;;;;;;;11.55;100.00;99881.56;4979592;28;20502;-77
2023/07/12 04:19:58;;;;;;;0.00;0.00;;;;;;;11.57;100.00;99890.31;5030211;28;20365;-77
2023/07/12 04:22:23;;;;;;;0.00;0.00;;;;;;;11.57;100.00;99879.34;5040671;28;20535;-79
2023/07/12 04:24:49;;;;;;;0.00;0.00;;;;;;;11.46;100.00;99873.16;5004398;28;20095;-78
2023/07/12 04:27:15;;;;;;;0.00;0.00;;;;;;;11.54;100.00;99890.88;5027185;28;20029;-78
2023/07/12 04:29:41;;;;;;;0.00;0.00;;;;;;;11.55;100.00;99891.69;5028128;28;20379;-78
2023/07/12 04:32:09;;;;;;;0.00;0.00;;;;;;;11.55;100.00;99886.19;5007615;28;20179;-78
2023/07/12 04:34:34;;;;;;;0.00;0.00;;;;;;;11.58;100.00;99889.22;5027798;28;20113;-79
2023/07/12 04:37:00;;;;;;;0.00;0.00;;;;;;;11.59;100.00;99881.78;5027000;28;20104;-79
2023/07/12 04:39:25;;;;;;;0.00;0.00;;;;;;;11.60;100.00;99884.25;5028877;28;20030;-77
2023/07/12 04:41:50;;;;;;;0.00;0.00;;;;;;;11.60;100.00;99884.25;5026928;28;20037;-79
2023/07/12 04:44:16;;;;;;;0.00;0.00;;;;;;;11.62;100.00;99884.78;5002848;28;20474;-78
2023/07/12 04:46:41;;;;;;;0.00;0.00;;;;;;;11.66;100.00;99888.56;4997390;28;20399;-78
2023/07/12 04:49:08;;;;;;;0.00;0.00;;;;;;;11.74;100.00;99900.03;4977011;28;20113;-77
2023/07/12 04:51:34;;;;;;;0.00;0.00;;;;;;;11.75;100.00;99902.47;5040224;28;20134;-80
2023/07/12 04:53:59;;;;;;;0.00;0.00;;;;;;;11.77;100.00;99899.44;5035283;28;20117;-77
2023/07/12 04:56:25;;;;;;;0.00;0.00;;;;;;;11.81;100.00;99897.78;4989566;28;20112;-78
2023/07/12 04:58:50;;;;;;;0.00;0.00;;;;;;;11.86;100.00;99906.78;5026152;28;20030;-77
2023/07/12 05:01:18;;;;;;;0.00;0.00;;;;;;;11.92;100.00;99904.81;5029741;28;20028;-78
2023/07/12 05:03:43;;;;;;;0.00;0.00;;;;;;;11.95;100.00;99896.03;5028443;28;20079;-78
2023/07/12 05:06:09;;;;;;;0.00;0.00;;;;;;;12.00;100.00;99898.75;5057005;28;20423;-77
2023/07/12 05:08:34;;;;;;;0.00;0.00;;;;;;;12.04;100.00;99899.78;5020802;28;20542;-77
2023/07/12 05:11:00;;;;;;;0.00;0.00;;;;;;;12.09;100.00;99907.16;5007654;28;20482;-77
2023/07/12 05:13:27;;;;;;;0.00;0.00;;;;;;;12.12;100.00;99911.22;5023088;28;20026;-77
2023/07/12 05:15:53;;;;;;;0.00;0.00;;;;;;;12.23;100.00;99921.00;5042592;28;20042;-76
2023/07/12 05:18:20;;;;;;;0.00;0.00;;;;;;;12.29;100.00;99919.81;5024563;28;20053;-76
2023/07/12 05:20:46;;;;;;;0.00;0.00;;;;;;;12.34;100.00;99928.00;5046347;28;20096;-78
2023/07/12 05:23:12;;;;;;;0.00;0.00;;;;;;;12.39;100.00;99927.94;5002797;28;20029;-76
2023/07/12 05:25:37;;;;;;;0.00;0.00;;;;;;;12.37;100.00;99908.22;5017235;28;20061;-76
2023/07/12 05:28:03;;;;;;;0.00;0.00;;;;;;;12.50;100.00;99922.34;5048330;28;20038;-76
2023/07/12 05:30:32;;;;;;;0.00;0.00;;;;;;;12.59;100.00;99931.59;5046377;28;20021;-77
2023/07/12 05:32:57;;;;;;;0.00;0.00;;;;;;;12.62;100.00;99902.75;5028048;28;20045;-76
2023/07/12 05:35:22;;;;;;;0.00;0.00;;;;;;;12.69;100.00;99917.75;5012816;28;20121;-75
2023/07/12 05:37:57;;;;;;;0.00;0.00;;;;;;;12.74;100.00;99912.19;5059275;28;20061;-76
2023/07/12 05:40:24;;;;;;;;;;;;;;;12.84;100.00;99922.22;5031200;28;20029;-77
2023/07/12 05:42:49;;;;;;;0.00;0.00;;;;;;;12.90;100.00;99923.00;5037384;28;19924;-78
2023/07/12 05:45:15;;;;;;;0.00;0.00;;;;;;;12.95;100.00;99922.91;5034305;28;20025;-77
2023/07/12 05:47:47;;;;;;;0.00;0.00;;;;;;;13.02;100.00;99922.56;5037398;28;20032;-77
2023/07/12 05:50:14;;;;;;;0.00;0.00;;;;;;;13.08;100.00;99926.88;5058659;28;20021;-77
2023/07/12 05:52:39;;;;;;;0.00;0.00;;;;;;;13.19;100.00;99935.78;5045947;28;20029;-76
2023/07/12 05:55:08;;;;;;;0.00;0.00;;;;;;;13.30;100.00;99940.00;5051066;28;20698;-77
2023/07/12 05:57:33;;;;;;;0.00;0.00;;;;;;;13.50;100.00;99935.38;5022014;28;20040;-78
2023/07/12 06:00:00;;;;;;;0.00;0.00;;;;;;;13.63;100.00;99929.13;5041157;28;20391;-78
2023/07/12 06:02:26;;;;;;;0.00;0.00;;;;;;;13.75;100.00;99929.47;5023408;28;20048;-76
2023/07/12 06:04:51;;;;;;;0.00;0.00;;;;;;;13.90;100.00;99930.34;5045525;28;20036;-75
2023/07/12 06:07:17;;;;;;;0.00;0.00;;;;;;;14.12;100.00;99933.28;5047275;28;20095;-76
2023/07/12 06:09:43;;;;;;;0.00;0.00;;;;;;;14.35;100.00;99927.09;5018419;28;20041;-75
2023/07/12 06:12:09;;;;;;;0.00;0.00;;;;;;;14.58;100.00;99931.59;5032517;28;20108;-75
2023/07/12 06:14:34;;;;;;;0.00;0.00;;;;;;;14.88;100.00;99943.19;5035063;28;20055;-75
2023/07/12 06:17:04;;;;;;;0.00;0.00;;;;;;;15.09;100.00;99931.72;5045676;28;20079;-76
2023/07/12 06:19:30;;;;;;;0.00;0.00;;;;;;;15.34;100.00;99933.09;5016158;28;20109;-75
2023/07/12 06:21:56;;;;;;;0.00;0.00;;;;;;;15.54;98.98;99938.13;5003667;28;20124;-74
2023/07/12 06:24:21;;;;;;;0.00;0.00;;;;;;;15.74;96.97;99947.06;5039946;28;20025;-74
2023/07/12 06:26:46;;;;;;;0.00;0.00;;;;;;;15.88;95.00;99944.28;5037400;28;20095;-74
2023/07/12 06:29:15;;;;;;;0.00;0.00;;;;;;;15.88;94.53;99945.06;5066813;28;20032;-75
2023/07/12 06:31:42;;;;;;;0.00;0.00;;;;;;;15.85;93.61;99953.16;5044757;28;20415;-76
2023/07/12 06:34:09;;;;;;;0.00;0.00;;;;;;;15.82;92.85;99962.88;5037002;28;20027;-75
2023/07/12 06:36:34;;;;;;;0.00;0.00;;;;;;;15.77;91.92;99953.88;5048412;28;20038;-75
2023/07/12 06:39:00;;;;;;;0.00;0.00;;;;;;;15.81;91.56;99955.75;5032359;28;20115;-75
2023/07/12 06:41:26;;;;;;;0.00;0.00;;;;;;;15.87;91.09;99964.69;5043688;28;20048;-76
2023/07/12 06:43:51;;;;;;;0.00;0.00;;;;;;;15.86;90.17;99971.34;5049567;28;20040;-75
2023/07/12 06:46:17;;;;;;;0.00;0.00;;;;;;;15.92;90.25;99969.28;5057186;28;20115;-74
2023/07/12 06:48:42;;;;;;;0.00;0.00;;;;;;;16.05;90.02;99974.72;5050894;28;20487;-74
2023/07/12 06:51:08;;;;;;;0.00;0.00;;;;;;;16.15;89.01;99983.84;5045161;28;20049;-78
2023/07/12 06:53:33;;;;;;;0.00;0.00;;;;;;;16.15;87.75;99973.66;5031535;28;20495;-76
2023/07/12 06:55:59;;;;;;;0.00;0.00;;;;;;;16.36;87.48;99986.94;5041697;28;20025;-75
2023/07/12 06:58:25;;;;;;;0.00;0.00;;;;;;;16.40;86.54;99976.91;5017242;28;20435;-76
2023/07/12 07:00:50;;;;;;;0.00;0.00;;;;;;;16.53;86.17;100006.34;5018139;28;20040;-77
2023/07/12 07:03:17;;;;;;;0.00;0.00;;;;;;;16.39;85.74;100005.63;5018607;28;20026;-77
2023/07/12 07:05:44;;;;;;;0.00;0.00;;;;;;;16.07;85.80;99996.47;5028894;28;20029;-78
2023/07/12 07:08:11;;;;;;;0.00;0.00;;;;;;;15.82;87.19;100012.50;5029712;28;20029;-75
2023/07/12 07:10:37;;;;;;;0.00;0.00;;;;;;;15.57;88.22;100008.34;5057001;28;20071;-77
2023/07/12 07:13:02;;;;;;;0.00;0.00;;;;;;;15.43;89.44;100008.38;5041467;28;20029;-77
2023/07/12 07:15:28;;;;;;;0.00;0.00;;;;;;;15.25;90.44;100001.06;5049218;28;20048;-78
2023/07/12 07:18:03;;;;;;;0.00;0.00;;;;;;;15.22;90.89;99985.16;5050899;28;20025;-77
2023/07/12 07:20:29;;;;;;;0.00;0.00;;;;;;;15.35;91.42;99981.56;5039308;28;20045;-76
2023/07/12 07:22:55;;;;;;;0.00;0.00;;;;;;;15.73;89.51;99995.03;5036991;28;20029;-77
2023/07/12 07:25:20;;;;;;;0.00;0.00;;;;;;;16.19;87.18;100006.94;5048855;28;20155;-77
2023/07/12 07:27:46;;;;;;;0.00;0.00;;;;;;;16.38;84.97;100015.00;5034147;28;20040;-77
2023/07/12 07:30:15;;;;;;;0.00;0.00;;;;;;;16.34;84.08;100016.75;5021186;28;20486;-77
2023/07/12 07:32:41;;;;;;;0.00;0.00;;;;;;;16.17;84.53;100012.78;5025182;28;20029;-76
2023/07/12 07:35:12;;;;;;;0.00;0.00;;;;;;;16.10;84.40;100004.13;5015725;28;20057;-76
2023/07/12 07:37:41;;;;;;;0.00;0.00;;;;;;;16.14;82.38;100016.16;5045451;28;20052;-76
2023/07/12 07:40:07;;;;;;;0.00;0.00;;;;;;;16.23;82.72;100030.81;5013736;28;20026;-77
2023/07/12 07:42:32;;;;;;;0.00;0.00;;;;;;;16.21;82.14;100026.75;5003840;28;20050;-76
2023/07/12 07:45:00;;;;;;;0.00;0.00;;;;;;;16.21;83.13;100027.56;5028921;28;20063;-75
2023/07/12 07:47:25;;;;;;;0.00;0.00;;;;;;;16.33;82.61;100035.28;4990783;28;20029;-76
2023/07/12 07:49:53;;;;;;;0.00;0.00;;;;;;;16.37;80.59;100016.16;5019522;28;20018;-76
2023/07/12 07:52:21;;;;;;;0.00;0.00;;;;;;;16.72;80.28;100046.72;5032424;28;20150;-77
2023/07/12 07:54:47;;;;;;;0.00;0.00;;;;;;;16.86;78.38;100033.63;5042407;28;20104;-76
2023/07/12 07:57:14;;;;;;;0.00;0.00;;;;;;;16.83;76.28;100031.50;5012738;28;20538;-76
2023/07/12 07:59:40;;;;;;;0.00;0.00;;;;;;;16.79;75.12;100047.06;5024761;28;20033;-76
2023/07/12 08:02:09;;;;;;;0.00;0.00;;;;;;;16.58;74.93;100036.56;5008881;28;20480;-76
2023/07/12 08:04:36;;;;;;;0.00;0.00;;;;;;;16.47;75.02;100024.19;5008949;28;20075;-77
2023/07/12 08:07:02;;;;;;;0.00;0.00;;;;;;;16.60;73.85;100043.72;5013962;28;20025;-77
2023/07/12 08:09:28;;;;;;;0.00;0.00;;;;;;;16.56;74.55;100043.56;5019097;28;20330;-76
2023/07/12 08:11:53;;;;;;;0.00;0.00;;;;;;;16.57;74.13;100037.72;5011152;28;20029;-77
2023/07/12 08:14:20;;;;;;;0.00;0.00;;;;;;;16.65;74.56;100036.13;5041565;28;20365;-76
2023/07/12 08:16:48;;;;;;;0.00;0.00;;;;;;;16.72;73.87;100024.66;4998369;28;20037;-76
2023/07/12 08:19:14;;;;;;;0.00;0.00;;;;;;;16.96;73.52;100029.00;4999952;28;20044;-76
2023/07/12 08:21:40;;;;;;;0.00;0.00;;;;;;;17.00;72.80;100030.00;4997631;28;20044;-77
2023/07/12 08:24:07;;;;;;;0.00;0.00;;;;;;;17.04;73.45;100017.16;5010601;28;20037;-76
2023/07/12 08:26:37;;;;;;;0.00;0.00;;;;;;;17.20;70.22;100028.56;5023659;28;20026;-75
2023/07/12 08:29:08;;;;;;;0.00;0.00;;;;;;;17.32;68.63;100020.50;5009253;28;20024;-76
2023/07/12 08:31:35;;;;;;;0.00;0.00;;;;;;;17.39;68.17;100020.00;4994004;28;20030;-75
2023/07/12 08:34:06;;;;;;;0.00;0.00;;;;;;;17.66;68.62;100031.94;5008438;28;20021;-75
2023/07/12 08:36:32;;;;;;;0.00;0.00;;;;;;;18.03;66.21;100049.06;5042240;28;20063;-75
2023/07/12 08:39:00;;;;;;;0.00;0.00;;;;;;;18.37;65.41;100047.41;4993125;28;20046;-76
2023/07/12 08:41:29;;;;;;;0.00;0.00;;;;;;;18.97;64.83;100038.19;5004055;28;20049;-76
2023/07/12 08:43:56;;;;;;;0.00;0.00;;;;;;;19.76;60.84;100048.84;5025915;28;20032;-74
2023/07/12 08:46:35;;;;;;;0.00;0.00;;;;;;;19.93;60.38;100050.72;5030573;28;20029;-76
2023/07/12 08:49:03;;;;;;;0.00;0.00;;;;;;;19.98;58.40;100058.81;5020147;28;20105;-76
2023/07/12 08:51:32;;;;;;;0.00;0.00;;;;;;;19.58;59.32;100045.38;5043270;28;20018;-75
2023/07/12 08:54:06;;;;;;;0.00;0.00;;;;;;;19.82;60.70;100038.38;5029709;28;20060;-77
2023/07/12 08:56:34;;;;;;;0.00;0.00;;;;;;;20.15;59.55;100045.94;5028122;28;20029;-76
2023/07/12 08:59:13;;;;;;;0.00;0.00;;;;;;;20.30;59.46;100037.00;5017228;28;20056;-76
2023/07/12 09:01:58;;;;;;;0.00;0.00;;;;;;;20.82;56.67;100043.19;5019369;28;20039;-75
2023/07/12 09:04:38;;;;;;;0.00;0.00;;;;;;;20.89;55.89;100029.53;5024254;28;20053;-76
2023/07/12 09:07:04;;;;;;;0.00;0.00;;;;;;;21.18;54.75;100045.19;5005779;28;20191;-76
2023/07/12 09:09:36;;;;;;;0.00;0.00;;;;;;;21.19;52.68;100044.03;4992473;28;20027;-75
2023/07/12 09:12:07;;;;;;;0.00;0.00;;;;;;;21.25;53.91;100030.72;5005231;28;20026;-76
2023/07/12 09:14:37;;;;;;;0.00;0.00;;;;;;;21.88;53.62;100065.66;5026471;28;21194;-76
2023/07/12 09:17:05;;;;;;;0.00;0.00;;;;;;;22.47;51.37;100055.84;5025602;28;20057;-76
2023/07/12 09:19:39;;;;;;;0.00;0.00;;;;;;;22.75;48.87;100039.09;4997348;28;20036;-76
2023/07/12 09:22:22;;;;;;;0.00;0.00;;;;;;;23.13;48.88;100042.44;4999149;28;20029;-76
2023/07/12 09:24:57;;;;;;;0.00;0.00;;;;;;;23.23;46.16;100029.94;5023293;28;20480;-75
2023/07/12 09:27:25;;;;;;;0.00;0.00;;;;;;;22.90;48.17;100056.19;5006190;28;20029;-75
2023/07/12 09:30:11;;;;;;;0.00;0.00;;;;;;;22.77;47.37;100056.25;5005417;28;20035;-76
2023/07/12 09:32:45;;;;;;;0.00;0.00;;;;;;;21.86;48.99;100029.84;5015869;28;20034;-75
2023/07/12 09:35:26;;;;;;;0.00;0.00;;;;;;;21.08;51.39;100054.81;5011848;28;20049;-76
2023/07/12 09:38:00;;;;;;;0.00;0.00;;;;;;;20.47;53.21;100057.41;5050081;28;20049;-76
2023/07/12 09:40:42;;;;;;;0.00;0.00;;;;;;;20.18;54.42;100042.47;5000525;28;20026;-76
2023/07/12 09:43:30;;;;;;;0.00;0.00;;;;;;;20.32;54.07;100034.69;4992479;28;20090;-76
2023/07/12 09:46:16;;;;;;;0.00;0.00;;;;;;;21.09;53.24;100039.72;5011616;28;20373;-76
2023/07/12 09:49:04;;;;;;;0.00;0.00;;;;;;;21.67;51.57;100063.03;5004129;28;20741;-75
2023/07/12 09:51:48;;;;;;;0.00;0.00;;;;;;;21.68;51.48;100048.75;5036014;28;20365;-76
2023/07/12 09:54:33;;;;;;;0.00;0.00;;;;;;;21.73;50.24;100056.88;5060623;28;20507;-77
2023/07/12 09:57:06;;;;;;;0.00;0.00;;;;;;;21.54;50.44;100048.34;5059957;28;20060;-75
2023/07/12 09:59:35;;;;;;;0.00;0.00;;;;;;;21.55;50.73;100070.25;5048766;28;20099;-77
2023/07/12 10:02:25;;;;;;;0.00;0.00;;;;;;;21.58;50.64;100065.94;5050624;28;20029;-76
2023/07/12 10:05:04;;;;;;;0.00;0.00;;;;;;;21.85;50.37;100050.47;5042640;28;20137;-76
2023/07/12 10:07:51;;;;;;;0.00;0.00;;;;;;;22.35;49.51;100069.84;5014616;28;20049;-78
2023/07/12 10:10:41;;;;;;;0.00;0.00;;;;;;;21.94;48.98;100039.22;5022850;28;20018;-77
2023/07/12 10:13:25;;;;;;;0.00;0.00;;;;;;;21.80;50.58;100050.75;5022870;28;20541;-77
2023/07/12 10:15:50;;;;;;;0.00;0.00;;;;;;;21.81;50.07;100044.00;5025716;28;20490;-75
2023/07/12 10:18:25;;;;;;;0.00;0.00;;;;;;;21.87;50.85;100052.91;5011636;28;20034;-75
2023/07/12 10:20:52;;;;;;;0.00;0.00;;;;;;;22.24;48.93;100053.59;5003200;28;20029;-75
2023/07/12 10:23:26;;;;;;;0.00;0.00;;;;;;;22.42;49.98;100059.69;5030491;28;20029;-78
2023/07/12 10:26:04;;;;;;;0.00;0.00;;;;;;;23.03;47.65;100054.94;5026732;28;20075;-76
2023/07/12 10:28:51;;;;;;;0.00;0.00;;;;;;;23.94;45.39;100069.88;5015915;28;20036;-75
2023/07/12 10:31:36;;;;;;;;;;;;;;;;;;;;;
2023/07/12 10:34:39;;;;;;;0.00;0.00;;;;;;;24.76;43.66;100058.75;5014870;28;20056;-77
2023/07/12 10:37:30;;;;;;;0.00;0.00;;;;;;;25.79;42.15;100069.25;5017724;28;20068;-76
2023/07/12 10:39:58;;;;;;;0.00;0.00;;;;;;;26.06;40.87;100058.81;5009366;28;20037;-76
2023/07/12 10:42:42;;;;;;;0.00;0.00;;;;;;;27.71;39.13;100072.84;5023375;28;20107;-76
2023/07/12 10:45:29;;;;;;;0.00;0.00;;;;;;;27.76;36.29;100057.63;5027351;28;20040;-78
2023/07/12 10:47:57;;;;;;;0.00;0.00;;;;;;;27.87;36.35;100042.44;5014718;28;20037;-76
2023/07/12 10:51:12;;;;;;;0.00;0.00;;;;;;;28.96;36.07;100060.50;5005228;28;20491;-76
2023/07/12 10:54:03;;;;;;;0.00;0.00;;;;;;;32.26;30.16;100061.09;5012676;28;20599;-76
2023/07/12 10:56:39;;;;;;;0.00;0.00;;;;;;;31.51;30.24;100057.81;5030812;28;20075;-75
2023/07/12 10:59:30;;;;;;;0.00;0.00;;;;;;;29.73;32.87;100057.25;5049412;28;20867;-75
2023/07/12 11:02:11;;;;;;;0.00;0.00;;;;;;;28.94;33.48;100051.63;5015741;28;20037;-74
2023/07/12 11:04:50;;;;;;;0.00;0.00;;;;;;;28.60;34.29;100040.72;5034753;28;20031;-74
2023/07/12 11:07:25;;;;;;;0.00;0.00;;;;;;;28.13;34.53;100051.03;5036542;28;20025;-77
2023/07/12 11:09:58;;;;;;;0.00;0.00;;;;;;;27.40;35.93;100040.56;5050155;28;20016;-75
2023/07/12 11:12:29;;;;;;;0.00;0.00;;;;;;;27.14;37.40;100051.56;5032161;28;20479;-76
2023/07/12 11:15:21;;;;;;;0.00;0.00;;;;;;;26.85;37.69;100044.09;5014475;28;20127;-76
2023/07/12 11:17:49;;;;;;;0.00;0.00;;;;;;;26.70;38.72;100045.97;5018614;28;20057;-74
2023/07/12 11:20:34;;;;;;;0.00;0.00;;;;;;;26.47;38.40;100030.06;5021422;28;20404;-76
2023/07/12 11:23:16;;;;;;;0.00;0.00;;;;;;;26.61;38.13;100054.66;5062205;28;20057;-76
2023/07/12 11:27:07;;;;;;;0.00;0.00;;;;;;;27.00;38.04;100027.00;5023729;28;20076;-77
2023/07/12 11:30:06;;;;;;;;;;;;;;;;;;;;;
2023/07/12 11:33:03;;;;;;;;;;;;;;;;;;;;;
2023/07/12 11:36:02;;;;;;;0.00;0.00;;;;;;;29.60;33.96;100050.44;4979606;28;20040;-77
2023/07/12 11:39:20;;;;;;;0.00;0.00;;;;;;;29.69;33.26;100033.91;4967766;28;20054;-76
2023/07/12 11:45:36;;;;;;;0.00;0.00;;;;;;;37.10;23.68;100034.59;4957305;28;20042;-76
2023/07/12 11:49:10;;;;;;;0.00;0.00;;;;;;;35.96;23.26;100041.34;4980915;28;20511;-76
2023/07/12 12:00:42;;;;;;;;;;;;;;;;;;;;;